Timeline UpdatesTrip UpdatesNews PostsPvt PostsTravel TipsAdmin PostsConv PostsFollowed PostsChat RequestsBlog PostsPNR Posts

Disclaimer
Search
 
 
Fri Apr 25, 2014 12:10:55 ISTHomeTrainsΣChainsAtlasPNRForumGalleryNewsFAQTripsMembersLoginFeedback
No Recent News for this Train
Other Trains in the News **new
Latest...
racallocation 230 in sl from end to end; entry 996099
Wed Feb 19, 2014 (03:46PM)
⇐ Return Journey: Train# 11016

11015/Kushinagar Express

Oct 01 2013 (11:42AM)
Change Departure Station:
Change Arrival Station:
Post a Train Travel TipPost a Train Travel Tip **new
Post a Comment/Question/Picture/VideoPost a Comment/Question/Picture/Video
Pantry/Catering
✓ Pantry Car Avbl
✓ Catering Avbl
RSA - Rake Sharing
No RSA.
Rake/Coach Composition
SLR1-GEN1-GEN2-A1-B2-B1-S14-PC-S13-S12-S11-S10-S9-S8-S7-S6-S5-S4-S3-S2-S1-GEN3(from KYN)-SLR/LD; http://indiarailinfo.com/blog/post/841167
Loco
LTT-JHS: BSL-WAP-4 JHS-GKP: GD-WDM-3A Entry# 970759
News    PNR    Forum    Time-Table    Availability    Fare Chart    Map    Arr/Dep History    Trips    Gallery    ΣChains    X/O    Timeline    
Travel Time: 30h 50m    43 halts    Distance: 1615 km    Avg Speed: 52 km/hr
Type: Mail/Express
Zone: CR/Central
Departs @ 22:45 (Avg 3m late)
Platform# 2
SMTWTFS
Mumbai Lokmanya Tilak Terminus/LTT 
Arrives @ 05:35 +2 nights (Avg 46m late)
Platform# 2
SMTWTFS
Basti/BST 

43 halts. 235 intermediate Stations between Mumbai Lokmanya Tilak Terminus and Basti

Show ALL intermediate Stations  Show Old Time-Table

#CodeStation NameX/OArrivesAvgDepartsAvgHaltPFDay#KmSpeedElevZoneAddress
1LTT»Mumbai Lokmanya Tilak Terminus (5)»  -22:45+3210.0587mCRMumbai, Maharashtra
2TNAThane (10)X  23:02+1223:05+123m7116.56110mCRThane, Maharashtra
3KYNKalyan Junction (8)X  23:25+2023:30+225m4136.76410mCRKalyan 421301, Maharashtra
4KSRAKasara (4)X  00:33+2900:35+352m12104.117290mCRDist. Thane 421602, Maharashtra
5IGPIgatpuri (4)X  01:25+1201:30+185m12118.556589mCRIgatpuri 422403, Maharashtra
6DVLDevlali (3)X  02:18+1402:20+202m12163.434561mCRDist. Nashik 422401, Maharashtra
7NKNasik Road (3)X  02:30+1702:35+175m22169.187563mCRNashik 422101, Maharashtra
8MMRManmad Junction (6)X  03:25+2403:30+245m22241.985580mCRManmad 423104, Maharashtra
9NGNNandgaon (3)X  03:48+2803:50+292m--2267.379476mCRNandgaon, Maharashtra
10CSNChalisgaon Junction (3)X  04:22+2704:24+272m--2309.493352mCRChalisgaon 424101, Maharashtra
11PCPachora Junction (4)X  04:53+2704:55+282m--2354.387264mCRPachora 424201, Maharashtra
12JLJalgaon Junction (4)X  05:28+3105:30+322m32402.058213mCRJalgaon 425001, Maharashtra
13BSLBhusaval Junction (8)X  05:55+3306:10+3215m22426.173208mCRBhusaval 425201, Maharashtra
14RVRaver (2)X  06:38+3806:40+422m--2460.467242mCRJalgaon, Maharashtra
15BAUBurhanpur (2)X  06:58+4307:00+432m22480.656269mCRBurhanpur, Madhya Pradesh
16NPNRNepanagar (2)X  07:28+3807:30+402m--2506.826289mCRState Highway 27, Madhya Pradesh
17KNWKhandwa Junction (5)  09:10+609:15+75m--2549.5114310mCRKhandwa, Madhya Pradesh
18KKNKhirkiya (2)X  09:55+2309:57+242m22625.676281mWCRSH 15, Madhya Pradesh
19HDHarda (3)  10:22+2510:24+252m--2657.161289mWCRHarda, Madhya Pradesh
20TBNTimarni (2)X  10:38+2410:40+252m--2671.249308mWCRTimarni, Madhya Pradesh
21ETItarsi Junction (7)X  11:55+1412:00+215m--2732.960329mWCRItarsi 461111, Madhya Pradesh
22HBDHoshangabad (4)X  12:18+2512:20+262m--2751.058308mWCRHoshangabad, Madhya Pradesh
23MDDPMandi Dip (1)  13:13+4313:15+442m12802.254449mWCRMandideep, Madhya Pradesh
24HBJBhopal HabibGanj (5)X  13:33+4913:35+502m12818.419496mWCRHabibGanj, Madhya Pradesh
25BPLBhopal Junction (6)  13:55+4714:00+525m32824.685497mWCRBhopal, Madhya Pradesh
26BHSVidisha (3)  14:38+5714:40+1:002m12878.184432mWCRVidisha, Madhya Pradesh
27BAQGanj Basoda (4)  15:08+5715:10+582m12917.530416mWCRVidisha, Madhya Pradesh
28BINABina Junction (5)  16:40+1816:45+195m32963.273414mWCRJn Pt - KATNI/GUNA/ BPL/JHS, Madhya Pradesh
29LARLalitpur (3)  17:37+2917:39+302m321026.190373mNCRLalitpur, Uttar Pradesh
30BABBabina (3)X  18:22+3718:24+372m121090.937285mNCRBabina, Uttar Pradesh
31JHSJhansi Junction (7)XO  19:05+3319:20+4615m421116.479259mNCRJhansi, Uttar Pradesh
32CGNChirgaon  19:44+5519:46+572m--21148.275192mNCRChirgaon, Uttar Pradesh
33AITAit Junction (2)X  20:32+1:0020:34+1:012m121205.843154mNCROrai(05162-252206), Uttar Pradesh
34ORAIOrai (3)XO  21:08+5121:10+552m--21230.468139mNCROrai(05162-252206), Uttar Pradesh
35KPIKalpi  21:39+5921:41+592m--21263.160114mNCRKalpi Orai(05162-252206), Uttar Pradesh
36PHNPokhrayan (2)X  21:56+1:0021:58+1:032m121278.227133mNCRPukhrayan, Uttar Pradesh
37BZMBhimsen (1)  23:35+1623:37+192m121322.626136mNCRKanpur, Uttar Pradesh
38CNBKanpur Central (10)X  00:10+2700:20+2710m731336.750128mNCRKanpur, Uttar Pradesh
39ONUnnao Junction (5)X  00:41+4100:43+422m--31354.153129mNRUnnao, Uttar Pradesh
40LKOLucknow Charbagh (9)X  01:45+4001:55+4110m231408.740123mNRCharbagh, Uttar Pradesh
41BBKBarabanki Junction (4)X  02:38+3602:40+362m--31437.263122mNRPin-225001, Uttar Pradesh
42GDGonda Junction (3)X  04:05+5204:10+545m231526.560110mNERGonda 271001, Uttar Pradesh
43MURMankapur Junction (5)  04:38+5204:40+522m131554.478104mNERDistrict Gonda, Uttar Pradesh
44BVBabhnan (2)X  05:03+5305:05+532m--31584.262101mNERDistrict- Basti, Uttar Pradesh
45BST•Basti (4)•X  05:35+4605:40+455m231615.08190mNERBasti 272001, Uttar Pradesh
46KLDKhalilabad (3)X  06:02+4506:04+452m--31644.53186mNERKhalilabad- 272175, Uttar Pradesh
47GKPGorakhpur Junction (10)  07:10+22-431678.4-84mNERGorakhpur 273001, Uttar Pradesh
Scroll to Top
Scroll to Bottom